sensor_id;sensor_type;location;lat;lon;timestamp;temperature;humidity
19252;DHT22;9760;50.944;5.304;2023-08-21T00:01:40;21.20;99.90
19252;DHT22;9760;50.944;5.304;2023-08-21T00:04:06;21.20;99.90
19252;DHT22;9760;50.944;5.304;2023-08-21T00:06:32;21.10;99.90
19252;DHT22;9760;50.944;5.304;2023-08-21T00:08:57;21.10;99.90
19252;DHT22;9760;50.944;5.304;2023-08-21T00:11:23;21.10;99.90
19252;DHT22;9760;50.944;5.304;2023-08-21T00:13:49;21.20;99.90
19252;DHT22;9760;50.944;5.304;2023-08-21T00:16:16;21.20;99.90
19252;DHT22;9760;50.944;5.304;2023-08-21T00:18:42;21.20;99.90
19252;DHT22;9760;50.944;5.304;2023-08-21T00:21:07;21.10;99.90
19252;DHT22;9760;50.944;5.304;2023-08-21T00:23:33;21.00;99.90
19252;DHT22;9760;50.944;5.304;2023-08-21T00:25:59;20.90;99.90
19252;DHT22;9760;50.944;5.304;2023-08-21T00:28:24;20.90;99.90
19252;DHT22;9760;50.944;5.304;2023-08-21T00:30:50;20.90;99.90
19252;DHT22;9760;50.944;5.304;2023-08-21T00:33:16;20.90;99.90
19252;DHT22;9760;50.944;5.304;2023-08-21T00:35:44;20.80;99.90
19252;DHT22;9760;50.944;5.304;2023-08-21T00:38:10;20.70;99.90
19252;DHT22;9760;50.944;5.304;2023-08-21T00:40:36;20.60;99.90
19252;DHT22;9760;50.944;5.304;2023-08-21T00:43:01;20.60;99.90
19252;DHT22;9760;50.944;5.304;2023-08-21T00:45:28;20.60;99.90
19252;DHT22;9760;50.944;5.304;2023-08-21T00:47:54;20.50;99.90
19252;DHT22;9760;50.944;5.304;2023-08-21T00:50:20;20.40;99.90
19252;DHT22;9760;50.944;5.304;2023-08-21T00:52:46;20.30;99.90
19252;DHT22;9760;50.944;5.304;2023-08-21T00:55:13;20.30;99.90
19252;DHT22;9760;50.944;5.304;2023-08-21T00:57:40;20.20;99.90
19252;DHT22;9760;50.944;5.304;2023-08-21T01:00:07;20.20;99.90
19252;DHT22;9760;50.944;5.304;2023-08-21T01:02:36;20.20;99.90
19252;DHT22;9760;50.944;5.304;2023-08-21T01:05:01;20.20;99.90
19252;DHT22;9760;50.944;5.304;2023-08-21T01:07:27;20.20;99.90
19252;DHT22;9760;50.944;5.304;2023-08-21T01:09:58;20.10;99.90
19252;DHT22;9760;50.944;5.304;2023-08-21T01:12:37;20.10;99.90
19252;DHT22;9760;50.944;5.304;2023-08-21T01:15:06;20.00;99.90
19252;DHT22;9760;50.944;5.304;2023-08-21T01:17:37;20.10;99.90
19252;DHT22;9760;50.944;5.304;2023-08-21T01:20:03;20.10;99.90
19252;DHT22;9760;50.944;5.304;2023-08-21T01:22:39;20.10;99.90
19252;DHT22;9760;50.944;5.304;2023-08-21T01:25:06;20.10;99.90
19252;DHT22;9760;50.944;5.304;2023-08-21T01:27:32;20.10;99.90
19252;DHT22;9760;50.944;5.304;2023-08-21T01:30:00;20.10;99.90
19252;DHT22;9760;50.944;5.304;2023-08-21T01:34:54;20.20;99.90
19252;DHT22;9760;50.944;5.304;2023-08-21T01:37:21;20.20;99.90
19252;DHT22;9760;50.944;5.304;2023-08-21T01:39:47;20.20;99.90
19252;DHT22;9760;50.944;5.304;2023-08-21T01:42:13;20.10;99.90
19252;DHT22;9760;50.944;5.304;2023-08-21T01:44:39;20.10;99.90
19252;DHT22;9760;50.944;5.304;2023-08-21T01:47:04;20.10;99.90
19252;DHT22;9760;50.944;5.304;2023-08-21T01:49:30;20.10;99.90
19252;DHT22;9760;50.944;5.304;2023-08-21T01:51:56;20.10;99.90
19252;DHT22;9760;50.944;5.304;2023-08-21T01:54:22;20.10;99.90
19252;DHT22;9760;50.944;5.304;2023-08-21T01:56:47;20.10;99.90
19252;DHT22;9760;50.944;5.304;2023-08-21T01:59:13;20.00;99.90
19252;DHT22;9760;50.944;5.304;2023-08-21T02:01:38;20.00;99.90
19252;DHT22;9760;50.944;5.304;2023-08-21T02:04:04;19.90;99.90
19252;DHT22;9760;50.944;5.304;2023-08-21T02:06:30;19.70;99.90
19252;DHT22;9760;50.944;5.304;2023-08-21T02:08:55;19.60;99.90
19252;DHT22;9760;50.944;5.304;2023-08-21T02:11:21;19.70;99.90
19252;DHT22;9760;50.944;5.304;2023-08-21T02:13:47;19.70;99.90
19252;DHT22;9760;50.944;5.304;2023-08-21T02:16:12;19.70;99.90
19252;DHT22;9760;50.944;5.304;2023-08-21T02:18:38;19.70;99.90
19252;DHT22;9760;50.944;5.304;2023-08-21T02:21:03;19.80;99.90
19252;DHT22;9760;50.944;5.304;2023-08-21T02:23:29;19.70;99.90
19252;DHT22;9760;50.944;5.304;2023-08-21T02:25:55;19.60;99.90
19252;DHT22;9760;50.944;5.304;2023-08-21T02:28:21;19.50;99.90
19252;DHT22;9760;50.944;5.304;2023-08-21T02:30:46;19.40;99.90
19252;DHT22;9760;50.944;5.304;2023-08-21T02:33:12;19.30;99.90
19252;DHT22;9760;50.944;5.304;2023-08-21T02:35:38;19.30;99.90
19252;DHT22;9760;50.944;5.304;2023-08-21T02:38:04;19.30;99.90
19252;DHT22;9760;50.944;5.304;2023-08-21T02:40:30;19.20;99.90
19252;DHT22;9760;50.944;5.304;2023-08-21T02:42:56;19.30;99.90
19252;DHT22;9760;50.944;5.304;2023-08-21T02:45:22;19.20;99.90
19252;DHT22;9760;50.944;5.304;2023-08-21T02:47:47;19.20;99.90
19252;DHT22;9760;50.944;5.304;2023-08-21T02:50:13;19.20;99.90
19252;DHT22;9760;50.944;5.304;2023-08-21T02:52:39;19.20;99.90
19252;DHT22;9760;50.944;5.304;2023-08-21T02:55:05;19.20;99.90
19252;DHT22;9760;50.944;5.304;2023-08-21T02:57:31;19.20;99.90
19252;DHT22;9760;50.944;5.304;2023-08-21T02:59:57;19.20;99.90
19252;DHT22;9760;50.944;5.304;2023-08-21T03:02:23;19.00;99.90
19252;DHT22;9760;50.944;5.304;2023-08-21T03:04:49;19.00;99.90
19252;DHT22;9760;50.944;5.304;2023-08-21T03:07:15;19.00;99.90
19252;DHT22;9760;50.944;5.304;2023-08-21T03:09:41;19.00;99.90
19252;DHT22;9760;50.944;5.304;2023-08-21T03:12:07;19.10;99.90
19252;DHT22;9760;50.944;5.304;2023-08-21T03:14:33;19.10;99.90
19252;DHT22;9760;50.944;5.304;2023-08-21T03:16:59;19.10;99.90
19252;DHT22;9760;50.944;5.304;2023-08-21T03:19:25;19.10;99.90
19252;DHT22;9760;50.944;5.304;2023-08-21T03:21:51;19.20;99.90
19252;DHT22;9760;50.944;5.304;2023-08-21T03:24:17;19.10;99.90
19252;DHT22;9760;50.944;5.304;2023-08-21T03:26:43;19.10;99.90
19252;DHT22;9760;50.944;5.304;2023-08-21T03:29:08;19.10;99.90
19252;DHT22;9760;50.944;5.304;2023-08-21T03:31:34;19.00;99.90
19252;DHT22;9760;50.944;5.304;2023-08-21T03:34:00;18.90;99.90
19252;DHT22;9760;50.944;5.304;2023-08-21T03:36:25;18.90;99.90
19252;DHT22;9760;50.944;5.304;2023-08-21T03:39:00;18.90;99.90
19252;DHT22;9760;50.944;5.304;2023-08-21T03:41:27;18.90;99.90
19252;DHT22;9760;50.944;5.304;2023-08-21T03:43:53;18.80;99.90
19252;DHT22;9760;50.944;5.304;2023-08-21T03:46:18;18.80;99.90
19252;DHT22;9760;50.944;5.304;2023-08-21T03:48:44;18.80;99.90
19252;DHT22;9760;50.944;5.304;2023-08-21T03:51:10;18.80;99.90
19252;DHT22;9760;50.944;5.304;2023-08-21T03:53:36;18.70;99.90
19252;DHT22;9760;50.944;5.304;2023-08-21T03:56:01;18.70;99.90
19252;DHT22;9760;50.944;5.304;2023-08-21T03:58:27;18.60;99.90
19252;DHT22;9760;50.944;5.304;2023-08-21T04:00:53;18.50;99.90
19252;DHT22;9760;50.944;5.304;2023-08-21T04:03:19;18.50;99.90
19252;DHT22;9760;50.944;5.304;2023-08-21T04:05:45;18.40;99.90
19252;DHT22;9760;50.944;5.304;2023-08-21T04:08:11;18.30;99.90
19252;DHT22;9760;50.944;5.304;2023-08-21T04:10:37;18.30;99.90
19252;DHT22;9760;50.944;5.304;2023-08-21T04:13:04;18.50;99.90
19252;DHT22;9760;50.944;5.304;2023-08-21T04:15:30;18.60;99.90
19252;DHT22;9760;50.944;5.304;2023-08-21T04:17:56;18.70;99.90
19252;DHT22;9760;50.944;5.304;2023-08-21T04:20:22;18.70;99.90
19252;DHT22;9760;50.944;5.304;2023-08-21T04:22:49;18.70;99.90
19252;DHT22;9760;50.944;5.304;2023-08-21T04:25:14;18.60;99.90
19252;DHT22;9760;50.944;5.304;2023-08-21T04:27:41;18.50;99.90
19252;DHT22;9760;50.944;5.304;2023-08-21T04:30:07;18.40;99.90
19252;DHT22;9760;50.944;5.304;2023-08-21T04:32:33;18.30;99.90
19252;DHT22;9760;50.944;5.304;2023-08-21T04:34:59;18.20;99.90
19252;DHT22;9760;50.944;5.304;2023-08-21T04:37:25;18.20;99.90
19252;DHT22;9760;50.944;5.304;2023-08-21T04:39:54;18.30;99.90
19252;DHT22;9760;50.944;5.304;2023-08-21T04:42:20;18.20;99.90
19252;DHT22;9760;50.944;5.304;2023-08-21T04:44:45;18.30;99.90
19252;DHT22;9760;50.944;5.304;2023-08-21T04:49:48;18.40;99.90
19252;DHT22;9760;50.944;5.304;2023-08-21T04:52:13;18.40;99.90
19252;DHT22;9760;50.944;5.304;2023-08-21T04:54:39;18.40;99.90
19252;DHT22;9760;50.944;5.304;2023-08-21T04:57:04;18.50;99.90
19252;DHT22;9760;50.944;5.304;2023-08-21T04:59:30;18.50;99.90
19252;DHT22;9760;50.944;5.304;2023-08-21T05:01:56;18.60;99.90
19252;DHT22;9760;50.944;5.304;2023-08-21T05:04:21;18.50;99.90
19252;DHT22;9760;50.944;5.304;2023-08-21T05:06:47;18.50;99.90
19252;DHT22;9760;50.944;5.304;2023-08-21T05:09:13;18.40;99.90
19252;DHT22;9760;50.944;5.304;2023-08-21T05:11:38;18.40;99.90
19252;DHT22;9760;50.944;5.304;2023-08-21T05:14:04;18.50;99.90
19252;DHT22;9760;50.944;5.304;2023-08-21T05:16:29;18.50;99.90
19252;DHT22;9760;50.944;5.304;2023-08-21T05:18:55;18.50;99.90
19252;DHT22;9760;50.944;5.304;2023-08-21T05:21:21;18.50;99.90
19252;DHT22;9760;50.944;5.304;2023-08-21T05:23:46;18.50;99.90
19252;DHT22;9760;50.944;5.304;2023-08-21T05:26:12;18.60;99.90
19252;DHT22;9760;50.944;5.304;2023-08-21T05:28:38;18.60;99.90
19252;DHT22;9760;50.944;5.304;2023-08-21T05:31:03;18.60;99.90
19252;DHT22;9760;50.944;5.304;2023-08-21T05:33:29;18.70;99.90
19252;DHT22;9760;50.944;5.304;2023-08-21T05:35:56;18.70;99.90
19252;DHT22;9760;50.944;5.304;2023-08-21T05:38:22;18.70;99.90
19252;DHT22;9760;50.944;5.304;2023-08-21T05:40:48;18.80;99.90
19252;DHT22;9760;50.944;5.304;2023-08-21T05:43:16;18.80;99.90
19252;DHT22;9760;50.944;5.304;2023-08-21T05:45:41;18.90;99.90
19252;DHT22;9760;50.944;5.304;2023-08-21T05:48:07;19.00;99.90
19252;DHT22;9760;50.944;5.304;2023-08-21T05:50:33;19.00;99.90
19252;DHT22;9760;50.944;5.304;2023-08-21T05:53:05;19.00;99.90
19252;DHT22;9760;50.944;5.304;2023-08-21T05:55:31;19.00;99.90
19252;DHT22;9760;50.944;5.304;2023-08-21T05:57:56;19.10;99.90
19252;DHT22;9760;50.944;5.304;2023-08-21T06:00:22;19.00;99.90
19252;DHT22;9760;50.944;5.304;2023-08-21T06:02:54;19.10;99.90
19252;DHT22;9760;50.944;5.304;2023-08-21T06:05:19;19.20;99.90
19252;DHT22;9760;50.944;5.304;2023-08-21T06:07:45;19.20;99.90
19252;DHT22;9760;50.944;5.304;2023-08-21T06:10:11;19.30;99.90
19252;DHT22;9760;50.944;5.304;2023-08-21T06:12:39;19.40;99.90
19252;DHT22;9760;50.944;5.304;2023-08-21T06:15:05;19.50;99.90
19252;DHT22;9760;50.944;5.304;2023-08-21T06:17:33;19.50;99.90
19252;DHT22;9760;50.944;5.304;2023-08-21T06:19:58;19.60;99.90
19252;DHT22;9760;50.944;5.304;2023-08-21T06:22:25;19.70;99.90
19252;DHT22;9760;50.944;5.304;2023-08-21T06:24:50;19.70;99.90
19252;DHT22;9760;50.944;5.304;2023-08-21T06:27:16;19.80;99.90
19252;DHT22;9760;50.944;5.304;2023-08-21T06:29:42;19.80;99.90
19252;DHT22;9760;50.944;5.304;2023-08-21T06:32:07;19.90;99.90
19252;DHT22;9760;50.944;5.304;2023-08-21T06:34:33;19.90;99.90
19252;DHT22;9760;50.944;5.304;2023-08-21T06:36:58;19.90;99.90
19252;DHT22;9760;50.944;5.304;2023-08-21T06:39:25;20.00;99.90
19252;DHT22;9760;50.944;5.304;2023-08-21T06:41:51;20.00;99.90
19252;DHT22;9760;50.944;5.304;2023-08-21T06:44:17;20.10;99.90
19252;DHT22;9760;50.944;5.304;2023-08-21T06:46:43;20.20;99.90
19252;DHT22;9760;50.944;5.304;2023-08-21T06:49:09;20.30;99.90
19252;DHT22;9760;50.944;5.304;2023-08-21T06:51:34;20.30;99.90
19252;DHT22;9760;50.944;5.304;2023-08-21T06:54:01;20.40;99.90
19252;DHT22;9760;50.944;5.304;2023-08-21T06:56:26;20.50;99.90
19252;DHT22;9760;50.944;5.304;2023-08-21T06:58:52;20.60;99.90
19252;DHT22;9760;50.944;5.304;2023-08-21T07:01:20;20.70;99.90
19252;DHT22;9760;50.944;5.304;2023-08-21T07:03:46;20.80;99.90
19252;DHT22;9760;50.944;5.304;2023-08-21T07:06:12;20.80;99.90
19252;DHT22;9760;50.944;5.304;2023-08-21T07:08:37;20.80;99.90
19252;DHT22;9760;50.944;5.304;2023-08-21T07:11:06;20.80;99.90
19252;DHT22;9760;50.944;5.304;2023-08-21T07:13:33;20.80;99.90
19252;DHT22;9760;50.944;5.304;2023-08-21T07:15:59;20.80;99.90
19252;DHT22;9760;50.944;5.304;2023-08-21T07:18:30;20.80;99.90
19252;DHT22;9760;50.944;5.304;2023-08-21T07:20:56;20.90;99.90
19252;DHT22;9760;50.944;5.304;2023-08-21T07:23:22;21.00;99.90
19252;DHT22;9760;50.944;5.304;2023-08-21T07:25:47;21.10;99.90
19252;DHT22;9760;50.944;5.304;2023-08-21T07:28:13;21.20;99.90
19252;DHT22;9760;50.944;5.304;2023-08-21T07:30:39;21.50;99.90
19252;DHT22;9760;50.944;5.304;2023-08-21T07:33:05;21.50;99.90
19252;DHT22;9760;50.944;5.304;2023-08-21T07:35:32;21.60;99.90
19252;DHT22;9760;50.944;5.304;2023-08-21T07:37:57;21.60;99.90
19252;DHT22;9760;50.944;5.304;2023-08-21T07:40:23;21.60;99.90
19252;DHT22;9760;50.944;5.304;2023-08-21T07:42:49;21.70;99.90
19252;DHT22;9760;50.944;5.304;2023-08-21T07:45:14;21.80;99.90
19252;DHT22;9760;50.944;5.304;2023-08-21T07:47:40;21.80;99.90
19252;DHT22;9760;50.944;5.304;2023-08-21T07:50:06;21.80;99.90
19252;DHT22;9760;50.944;5.304;2023-08-21T07:52:33;21.80;99.90
19252;DHT22;9760;50.944;5.304;2023-08-21T07:54:59;21.80;99.90
19252;DHT22;9760;50.944;5.304;2023-08-21T07:57:26;21.90;99.90
19252;DHT22;9760;50.944;5.304;2023-08-21T07:59:52;22.00;99.90
19252;DHT22;9760;50.944;5.304;2023-08-21T08:02:18;22.10;99.90
19252;DHT22;9760;50.944;5.304;2023-08-21T08:04:43;22.20;99.90
19252;DHT22;9760;50.944;5.304;2023-08-21T08:07:09;22.20;99.90
19252;DHT22;9760;50.944;5.304;2023-08-21T08:09:35;22.30;99.90
19252;DHT22;9760;50.944;5.304;2023-08-21T08:12:01;22.30;99.90
19252;DHT22;9760;50.944;5.304;2023-08-21T08:14:27;22.30;99.90
19252;DHT22;9760;50.944;5.304;2023-08-21T08:16:52;22.50;99.90
19252;DHT22;9760;50.944;5.304;2023-08-21T08:19:18;22.50;99.90
19252;DHT22;9760;50.944;5.304;2023-08-21T08:21:44;22.60;99.90
19252;DHT22;9760;50.944;5.304;2023-08-21T08:24:09;22.60;99.90
19252;DHT22;9760;50.944;5.304;2023-08-21T08:26:35;22.60;99.90
19252;DHT22;9760;50.944;5.304;2023-08-21T08:29:01;22.70;99.90
19252;DHT22;9760;50.944;5.304;2023-08-21T08:31:26;22.90;99.90
19252;DHT22;9760;50.944;5.304;2023-08-21T08:33:54;22.90;99.90
19252;DHT22;9760;50.944;5.304;2023-08-21T08:36:20;23.00;99.90
19252;DHT22;9760;50.944;5.304;2023-08-21T08:38:45;23.00;99.90
19252;DHT22;9760;50.944;5.304;2023-08-21T08:41:25;23.00;99.90
19252;DHT22;9760;50.944;5.304;2023-08-21T08:46:21;23.30;99.90
19252;DHT22;9760;50.944;5.304;2023-08-21T08:48:47;23.30;99.90
19252;DHT22;9760;50.944;5.304;2023-08-21T08:51:12;23.40;99.90
19252;DHT22;9760;50.944;5.304;2023-08-21T08:53:38;23.40;99.90
19252;DHT22;9760;50.944;5.304;2023-08-21T08:56:04;23.60;99.90
19252;DHT22;9760;50.944;5.304;2023-08-21T08:58:30;23.80;99.90
19252;DHT22;9760;50.944;5.304;2023-08-21T09:00:56;23.90;99.90
19252;DHT22;9760;50.944;5.304;2023-08-21T09:03:21;24.10;99.90
19252;DHT22;9760;50.944;5.304;2023-08-21T09:05:47;24.10;99.90
19252;DHT22;9760;50.944;5.304;2023-08-21T09:08:14;24.00;99.90
19252;DHT22;9760;50.944;5.304;2023-08-21T09:10:41;23.90;99.90
19252;DHT22;9760;50.944;5.304;2023-08-21T09:13:18;23.90;99.90
19252;DHT22;9760;50.944;5.304;2023-08-21T09:15:50;23.90;99.90
19252;DHT22;9760;50.944;5.304;2023-08-21T09:18:18;24.00;99.90
19252;DHT22;9760;50.944;5.304;2023-08-21T09:20:44;24.20;99.90
19252;DHT22;9760;50.944;5.304;2023-08-21T09:23:17;24.20;99.90
19252;DHT22;9760;50.944;5.304;2023-08-21T09:25:45;24.50;99.90
19252;DHT22;9760;50.944;5.304;2023-08-21T09:28:13;24.80;99.90
19252;DHT22;9760;50.944;5.304;2023-08-21T09:30:50;24.90;99.90
19252;DHT22;9760;50.944;5.304;2023-08-21T09:33:23;25.20;99.90
19252;DHT22;9760;50.944;5.304;2023-08-21T09:35:51;25.10;99.90
19252;DHT22;9760;50.944;5.304;2023-08-21T09:38:18;25.00;99.90
19252;DHT22;9760;50.944;5.304;2023-08-21T09:40:51;25.10;99.90
19252;DHT22;9760;50.944;5.304;2023-08-21T09:43:17;25.20;99.90
19252;DHT22;9760;50.944;5.304;2023-08-21T09:45:49;25.10;99.90
19252;DHT22;9760;50.944;5.304;2023-08-21T09:48:18;25.10;99.90
19252;DHT22;9760;50.944;5.304;2023-08-21T09:50:46;25.00;99.90
19252;DHT22;9760;50.944;5.304;2023-08-21T09:53:12;25.20;99.90
19252;DHT22;9760;50.944;5.304;2023-08-21T09:55:38;25.40;99.90
19252;DHT22;9760;50.944;5.304;2023-08-21T09:58:06;25.50;99.90
19252;DHT22;9760;50.944;5.304;2023-08-21T10:00:34;25.60;99.90
19252;DHT22;9760;50.944;5.304;2023-08-21T10:03:02;25.40;99.90
19252;DHT22;9760;50.944;5.304;2023-08-21T10:05:30;25.60;99.90
19252;DHT22;9760;50.944;5.304;2023-08-21T10:08:02;25.70;99.90
19252;DHT22;9760;50.944;5.304;2023-08-21T10:10:34;25.90;99.90
19252;DHT22;9760;50.944;5.304;2023-08-21T10:13:00;25.90;99.90
19252;DHT22;9760;50.944;5.304;2023-08-21T10:15:30;26.00;99.90
19252;DHT22;9760;50.944;5.304;2023-08-21T10:17:57;26.20;99.90
19252;DHT22;9760;50.944;5.304;2023-08-21T10:20:25;26.10;99.90
19252;DHT22;9760;50.944;5.304;2023-08-21T10:22:53;26.00;99.90
19252;DHT22;9760;50.944;5.304;2023-08-21T10:25:24;26.00;99.90
19252;DHT22;9760;50.944;5.304;2023-08-21T10:27:59;26.20;99.90
19252;DHT22;9760;50.944;5.304;2023-08-21T10:30:28;26.40;99.90
19252;DHT22;9760;50.944;5.304;2023-08-21T10:32:58;26.50;99.90
19252;DHT22;9760;50.944;5.304;2023-08-21T10:35:30;26.50;99.90
19252;DHT22;9760;50.944;5.304;2023-08-21T10:40:33;27.40;99.90
19252;DHT22;9760;50.944;5.304;2023-08-21T10:42:59;27.60;99.90
19252;DHT22;9760;50.944;5.304;2023-08-21T10:45:25;28.20;99.90
19252;DHT22;9760;50.944;5.304;2023-08-21T10:47:51;28.20;99.90
19252;DHT22;9760;50.944;5.304;2023-08-21T10:50:16;28.30;99.90
19252;DHT22;9760;50.944;5.304;2023-08-21T10:52:43;28.70;99.90
19252;DHT22;9760;50.944;5.304;2023-08-21T10:55:14;29.10;99.90
19252;DHT22;9760;50.944;5.304;2023-08-21T10:57:40;29.40;99.90
19252;DHT22;9760;50.944;5.304;2023-08-21T11:02:38;30.40;99.90
19252;DHT22;9760;50.944;5.304;2023-08-21T11:05:04;30.40;99.90
19252;DHT22;9760;50.944;5.304;2023-08-21T11:07:36;30.30;99.90
19252;DHT22;9760;50.944;5.304;2023-08-21T11:10:02;30.30;99.90
19252;DHT22;9760;50.944;5.304;2023-08-21T11:12:29;30.30;99.90
19252;DHT22;9760;50.944;5.304;2023-08-21T11:14:54;30.40;99.90
19252;DHT22;9760;50.944;5.304;2023-08-21T11:17:20;31.10;99.90
19252;DHT22;9760;50.944;5.304;2023-08-21T11:19:48;31.50;99.90
19252;DHT22;9760;50.944;5.304;2023-08-21T11:22:15;32.10;99.90
19252;DHT22;9760;50.944;5.304;2023-08-21T11:24:45;31.90;99.90
19252;DHT22;9760;50.944;5.304;2023-08-21T11:27:13;32.30;99.90
19252;DHT22;9760;50.944;5.304;2023-08-21T11:32:17;31.40;99.90
19252;DHT22;9760;50.944;5.304;2023-08-21T11:34:48;31.80;99.90
19252;DHT22;9760;50.944;5.304;2023-08-21T11:37:20;31.70;99.90
19252;DHT22;9760;50.944;5.304;2023-08-21T11:39:54;31.50;99.90
19252;DHT22;9760;50.944;5.304;2023-08-21T11:42:22;30.80;99.90
19252;DHT22;9760;50.944;5.304;2023-08-21T11:44:52;30.10;99.90
19252;DHT22;9760;50.944;5.304;2023-08-21T11:47:19;29.00;99.90
19252;DHT22;9760;50.944;5.304;2023-08-21T11:49:46;27.90;99.90
19252;DHT22;9760;50.944;5.304;2023-08-21T11:52:19;27.40;99.90
19252;DHT22;9760;50.944;5.304;2023-08-21T11:54:52;27.20;99.90
19252;DHT22;9760;50.944;5.304;2023-08-21T11:57:19;27.10;99.90
19252;DHT22;9760;50.944;5.304;2023-08-21T11:59:54;27.10;99.90
19252;DHT22;9760;50.944;5.304;2023-08-21T12:02:26;27.40;99.90
19252;DHT22;9760;50.944;5.304;2023-08-21T12:05:00;27.50;99.90
19252;DHT22;9760;50.944;5.304;2023-08-21T12:07:26;27.10;99.90
19252;DHT22;9760;50.944;5.304;2023-08-21T12:09:51;27.40;99.90
19252;DHT22;9760;50.944;5.304;2023-08-21T12:12:17;27.50;99.90
19252;DHT22;9760;50.944;5.304;2023-08-21T12:14:43;27.80;99.90
19252;DHT22;9760;50.944;5.304;2023-08-21T12:17:08;28.00;99.90
19252;DHT22;9760;50.944;5.304;2023-08-21T12:19:34;28.20;99.90
19252;DHT22;9760;50.944;5.304;2023-08-21T12:22:00;27.90;99.90
19252;DHT22;9760;50.944;5.304;2023-08-21T12:24:25;27.70;99.90
19252;DHT22;9760;50.944;5.304;2023-08-21T12:26:51;27.60;99.90
19252;DHT22;9760;50.944;5.304;2023-08-21T12:29:17;27.70;99.90
19252;DHT22;9760;50.944;5.304;2023-08-21T12:31:43;27.50;99.90
19252;DHT22;9760;50.944;5.304;2023-08-21T12:34:09;27.50;99.90
19252;DHT22;9760;50.944;5.304;2023-08-21T12:36:35;27.50;99.90
19252;DHT22;9760;50.944;5.304;2023-08-21T12:39:06;27.30;99.90
19252;DHT22;9760;50.944;5.304;2023-08-21T12:41:32;27.40;99.90
19252;DHT22;9760;50.944;5.304;2023-08-21T12:44:01;27.40;99.90
19252;DHT22;9760;50.944;5.304;2023-08-21T12:46:29;27.40;99.90
19252;DHT22;9760;50.944;5.304;2023-08-21T12:48:55;27.20;99.90
19252;DHT22;9760;50.944;5.304;2023-08-21T12:51:21;26.90;99.90
19252;DHT22;9760;50.944;5.304;2023-08-21T12:53:47;26.80;99.90
19252;DHT22;9760;50.944;5.304;2023-08-21T12:56:12;26.80;99.90
19252;DHT22;9760;50.944;5.304;2023-08-21T12:58:38;26.90;99.90
19252;DHT22;9760;50.944;5.304;2023-08-21T13:01:04;27.20;99.90
19252;DHT22;9760;50.944;5.304;2023-08-21T13:03:31;27.50;99.90
19252;DHT22;9760;50.944;5.304;2023-08-21T13:05:56;27.70;99.90
19252;DHT22;9760;50.944;5.304;2023-08-21T13:08:22;27.60;99.90
19252;DHT22;9760;50.944;5.304;2023-08-21T13:10:47;27.50;99.90
19252;DHT22;9760;50.944;5.304;2023-08-21T13:13:13;27.60;99.90
19252;DHT22;9760;50.944;5.304;2023-08-21T13:15:39;27.60;99.90
19252;DHT22;9760;50.944;5.304;2023-08-21T13:18:04;27.20;99.90
19252;DHT22;9760;50.944;5.304;2023-08-21T13:20:30;27.10;99.90
19252;DHT22;9760;50.944;5.304;2023-08-21T13:22:56;27.00;99.90
19252;DHT22;9760;50.944;5.304;2023-08-21T13:25:23;27.00;99.90
19252;DHT22;9760;50.944;5.304;2023-08-21T13:27:52;26.90;99.90
19252;DHT22;9760;50.944;5.304;2023-08-21T13:30:18;26.80;99.90
19252;DHT22;9760;50.944;5.304;2023-08-21T13:32:44;26.90;99.90
19252;DHT22;9760;50.944;5.304;2023-08-21T13:35:10;26.80;99.90
19252;DHT22;9760;50.944;5.304;2023-08-21T13:37:37;26.80;99.90
19252;DHT22;9760;50.944;5.304;2023-08-21T13:40:04;26.80;99.90
19252;DHT22;9760;50.944;5.304;2023-08-21T13:42:42;26.90;99.90
19252;DHT22;9760;50.944;5.304;2023-08-21T13:45:10;27.10;99.90
19252;DHT22;9760;50.944;5.304;2023-08-21T13:47:41;27.20;99.90
19252;DHT22;9760;50.944;5.304;2023-08-21T13:50:08;27.50;99.90
19252;DHT22;9760;50.944;5.304;2023-08-21T13:52:34;27.50;99.90
19252;DHT22;9760;50.944;5.304;2023-08-21T13:55:01;27.60;99.90
19252;DHT22;9760;50.944;5.304;2023-08-21T13:57:28;27.80;99.90
19252;DHT22;9760;50.944;5.304;2023-08-21T13:59:54;28.00;99.90
19252;DHT22;9760;50.944;5.304;2023-08-21T14:02:20;27.90;99.90
19252;DHT22;9760;50.944;5.304;2023-08-21T14:04:46;28.00;99.90
19252;DHT22;9760;50.944;5.304;2023-08-21T14:07:12;28.00;99.90
19252;DHT22;9760;50.944;5.304;2023-08-21T14:09:38;27.90;99.90
19252;DHT22;9760;50.944;5.304;2023-08-21T14:12:04;27.80;99.90
19252;DHT22;9760;50.944;5.304;2023-08-21T14:14:30;27.90;99.90
19252;DHT22;9760;50.944;5.304;2023-08-21T14:16:55;27.90;99.90
19252;DHT22;9760;50.944;5.304;2023-08-21T14:19:21;27.90;99.90
19252;DHT22;9760;50.944;5.304;2023-08-21T14:21:47;27.90;99.90
19252;DHT22;9760;50.944;5.304;2023-08-21T14:24:12;27.90;99.90
19252;DHT22;9760;50.944;5.304;2023-08-21T14:26:38;28.10;99.90
19252;DHT22;9760;50.944;5.304;2023-08-21T14:29:05;28.00;99.90
19252;DHT22;9760;50.944;5.304;2023-08-21T14:31:31;27.90;99.90
19252;DHT22;9760;50.944;5.304;2023-08-21T14:33:57;28.00;99.90
19252;DHT22;9760;50.944;5.304;2023-08-21T14:36:23;27.80;99.90
19252;DHT22;9760;50.944;5.304;2023-08-21T14:38:49;28.10;99.90
19252;DHT22;9760;50.944;5.304;2023-08-21T14:41:16;28.30;99.90
19252;DHT22;9760;50.944;5.304;2023-08-21T14:43:42;28.10;99.90
19252;DHT22;9760;50.944;5.304;2023-08-21T14:46:08;28.10;99.90
19252;DHT22;9760;50.944;5.304;2023-08-21T14:48:34;27.90;99.90
19252;DHT22;9760;50.944;5.304;2023-08-21T14:50:59;28.10;99.90
19252;DHT22;9760;50.944;5.304;2023-08-21T14:53:25;27.90;99.90
19252;DHT22;9760;50.944;5.304;2023-08-21T14:55:51;27.90;99.90
19252;DHT22;9760;50.944;5.304;2023-08-21T14:58:16;27.80;99.90
19252;DHT22;9760;50.944;5.304;2023-08-21T15:00:42;27.60;99.90
19252;DHT22;9760;50.944;5.304;2023-08-21T15:03:07;27.60;99.90
19252;DHT22;9760;50.944;5.304;2023-08-21T15:05:33;27.60;99.90
19252;DHT22;9760;50.944;5.304;2023-08-21T15:07:59;27.30;99.90
19252;DHT22;9760;50.944;5.304;2023-08-21T15:10:27;27.30;99.90
19252;DHT22;9760;50.944;5.304;2023-08-21T15:12:53;27.20;99.90
19252;DHT22;9760;50.944;5.304;2023-08-21T15:15:19;27.30;99.90
19252;DHT22;9760;50.944;5.304;2023-08-21T15:17:46;27.50;99.90
19252;DHT22;9760;50.944;5.304;2023-08-21T15:20:12;27.60;99.90
19252;DHT22;9760;50.944;5.304;2023-08-21T15:22:40;27.80;99.90
19252;DHT22;9760;50.944;5.304;2023-08-21T15:25:06;27.90;99.90
19252;DHT22;9760;50.944;5.304;2023-08-21T15:27:32;27.90;99.90
19252;DHT22;9760;50.944;5.304;2023-08-21T15:29:57;27.80;99.90
19252;DHT22;9760;50.944;5.304;2023-08-21T15:32:23;27.80;99.90
19252;DHT22;9760;50.944;5.304;2023-08-21T15:34:49;28.00;99.90
19252;DHT22;9760;50.944;5.304;2023-08-21T15:37:14;28.00;99.90
19252;DHT22;9760;50.944;5.304;2023-08-21T15:39:40;28.10;99.90
19252;DHT22;9760;50.944;5.304;2023-08-21T15:42:05;28.40;99.90
19252;DHT22;9760;50.944;5.304;2023-08-21T15:44:31;28.90;99.90
19252;DHT22;9760;50.944;5.304;2023-08-21T15:46:57;30.20;99.90
19252;DHT22;9760;50.944;5.304;2023-08-21T15:49:22;31.60;99.90
19252;DHT22;9760;50.944;5.304;2023-08-21T15:51:48;32.50;99.90
19252;DHT22;9760;50.944;5.304;2023-08-21T15:54:20;32.90;99.90
19252;DHT22;9760;50.944;5.304;2023-08-21T15:56:54;33.40;99.90